Time;durP1;ratioP1;P1;durP2;ratioP2;P2;SDS_P1;SDS_P2;PMS_P1;PMS_P2;Temp;Humidity;BMP_temperature;BMP_pressure;BME280_temperature;BME280_humidity;BME280_pressure;Samples;Min_cycle;Max_cycle;Signal;HPM_P1;HPM_P2
2022/02/01 00:00:38;;;;;;;24.67;1.77;;;;;;;5.18;71.35;102119.59;5032699;28;20060;-40
2022/02/01 00:03:04;;;;;;;29.40;2.35;;;;;;;5.19;72.16;102123.16;5032253;28;20504;-41
2022/02/01 00:05:39;;;;;;;23.63;2.08;;;;;;;5.23;72.61;102111.25;5032220;28;20044;-41
2022/02/01 00:08:31;;;;;;;28.40;2.65;;;;;;;5.23;72.76;102100.56;5031173;28;20033;-41
2022/02/01 00:13:55;;;;;;;36.97;2.65;;;;;;;5.24;73.42;102083.63;5032286;28;20060;-41
2022/02/01 00:35:44;;;;;;;25.23;2.42;;;;;;;5.27;69.58;102126.94;5030094;28;20496;-41
2022/02/01 00:40:34;;;;;;;22.45;1.73;;;;;;;5.36;67.57;102168.09;5031852;28;20095;-40
2022/02/01 00:43:00;;;;;;;23.58;2.13;;;;;;;5.34;68.42;102154.00;5031667;28;20037;-40
2022/02/01 00:45:25;;;;;;;23.80;1.85;;;;;;;5.40;70.24;102126.00;5031872;28;20083;-40
2022/02/01 00:47:51;;;;;;;20.45;2.25;;;;;;;5.25;72.52;102110.16;5031718;28;20033;-41
2022/02/01 00:50:16;;;;;;;18.83;2.08;;;;;;;5.19;73.54;102091.13;5031669;28;20045;-40
2022/02/01 00:52:43;;;;;;;41.50;2.78;;;;;;;5.16;74.26;102064.63;5031866;28;20036;-41
2022/02/01 00:55:09;;;;;;;43.55;2.33;;;;;;;5.10;74.18;102038.44;5030504;28;20064;-41
2022/02/01 00:57:34;;;;;;;22.60;2.70;;;;;;;5.12;73.97;102041.84;5030653;28;20125;-41
2022/02/01 01:00:00;;;;;;;15.48;2.33;;;;;;;5.10;73.59;102057.09;5033749;28;20041;-41
2022/02/01 01:02:25;;;;;;;17.00;2.40;;;;;;;5.13;73.29;102075.56;5035307;28;20042;-40
2022/02/01 01:04:50;;;;;;;20.48;2.20;;;;;;;5.13;72.66;102080.88;5035383;28;20091;-40
2022/02/01 01:07:16;;;;;;;24.63;2.20;;;;;;;5.16;72.87;102075.31;5035425;28;20052;-41
2022/02/01 01:09:41;;;;;;;29.70;2.65;;;;;;;5.17;72.49;102069.88;5034215;28;20033;-40
2022/02/01 01:12:07;;;;;;;12.52;2.70;;;;;;;5.15;72.50;102066.47;5035601;28;20057;-41
2022/02/01 01:43:59;;;;;;;20.10;2.20;;;;;;;5.28;73.35;102091.25;5016447;28;20540;-41
2022/02/01 01:54:20;;;;;;;22.20;2.58;;;;;;;5.22;73.87;102082.88;5026320;28;20086;-41
2022/02/01 01:56:46;;;;;;;22.48;2.97;;;;;;;5.19;73.98;102083.97;5034167;28;20414;-41
2022/02/01 01:59:12;;;;;;;27.40;3.75;;;;;;;5.20;73.88;102087.47;5034944;28;20107;-40
2022/02/01 02:01:39;;;;;;;33.88;3.53;;;;;;;5.18;74.05;102078.72;5034292;28;20474;-39
2022/02/01 02:04:05;;;;;;;30.30;3.28;;;;;;;5.14;74.46;102056.78;5034965;28;20074;-41
2022/02/01 02:06:33;;;;;;;26.77;3.47;;;;;;;5.12;75.26;102052.50;5034329;28;20030;-41
2022/02/01 02:09:00;;;;;;;;;;;;;;;5.12;75.03;102049.84;5036078;28;20044;-42
2022/02/01 02:11:46;;;;;;;39.25;3.05;;;;;;;5.12;75.12;102063.19;5048801;28;19913;-40
2022/02/01 02:14:21;;;;;;;31.23;3.15;;;;;;;5.10;75.38;102070.44;5034135;28;20060;-41
2022/02/01 02:17:13;;;;;;;34.40;2.72;;;;;;;5.12;75.45;102073.88;5033886;28;20081;-41
2022/02/01 02:19:38;;;;;;;20.73;2.63;;;;;;;5.14;75.25;102064.78;5033240;28;20133;-41
2022/02/01 02:22:05;;;;;;;39.00;3.15;;;;;;;5.17;74.45;102061.88;5034344;28;20026;-41
2022/02/01 02:24:37;;;;;;;32.63;3.05;;;;;;;5.22;74.32;102064.19;5034428;28;20038;-41
2022/02/01 02:27:03;;;;;;;19.00;2.55;;;;;;;5.25;73.29;102047.94;5032368;28;20041;-41
2022/02/01 02:29:29;;;;;;;18.20;2.67;;;;;;;5.25;72.97;102043.44;5034115;28;20029;-41
2022/02/01 02:31:55;;;;;;;26.13;3.05;;;;;;;5.30;73.20;102039.59;5033998;28;20044;-41
2022/02/01 02:34:21;;;;;;;41.40;3.67;;;;;;;5.34;73.82;102031.19;5033830;28;20473;-41
2022/02/01 02:36:58;;;;;;;26.17;3.38;;;;;;;5.34;74.22;102041.88;5026816;28;20048;-41
2022/02/01 02:39:33;;;;;;;25.60;2.78;;;;;;;5.36;74.55;102039.09;5033700;28;20044;-41
2022/02/01 02:42:12;;;;;;;31.63;3.25;;;;;;;5.35;75.27;102032.91;5034157;28;20488;-41
2022/02/01 02:47:26;;;;;;;25.30;3.05;;;;;;;5.40;75.46;102036.09;5034206;28;20145;-42
2022/02/01 02:49:51;;;;;;;39.38;3.67;;;;;;;5.44;75.90;102036.69;5033669;28;20091;-42
2022/02/01 02:52:17;;;;;;;29.08;3.38;;;;;;;5.45;75.77;102027.69;5033730;28;20409;-41
2022/02/01 02:54:42;;;;;;;23.48;2.65;;;;;;;5.47;76.19;102021.25;5033019;28;20030;-40
2022/02/01 02:57:08;;;;;;;34.15;5.25;;;;;;;5.49;75.37;102030.00;5033552;28;20026;-41
2022/02/01 02:59:34;;;;;;;27.80;2.97;;;;;;;5.47;74.61;102018.59;5033340;28;20045;-41
2022/02/01 03:02:00;;;;;;;29.73;3.72;;;;;;;5.45;74.84;102004.53;5033396;28;20347;-40
2022/02/01 03:04:30;;;;;;;28.42;3.75;;;;;;;5.43;74.68;101987.78;5033333;28;20041;-41
2022/02/01 03:06:56;;;;;;;25.40;3.22;;;;;;;5.45;75.44;101977.84;5033330;28;20026;-42
2022/02/01 03:09:23;;;;;;;24.55;2.80;;;;;;;5.47;75.12;101967.88;5033403;28;20030;-40
2022/02/01 03:11:50;;;;;;;22.92;2.88;;;;;;;5.46;75.63;101952.81;5033576;28;20398;-41
2022/02/01 03:14:25;;;;;;;19.88;3.83;;;;;;;5.49;75.76;101954.41;5033155;28;20029;-41
2022/02/01 03:22:09;;;;;;;25.05;3.45;;;;;;;5.45;76.69;101932.44;5032021;28;20072;-41
2022/02/01 03:24:34;;;;;;;31.10;3.05;;;;;;;5.46;77.50;101928.78;5031791;28;20057;-41
2022/02/01 03:27:00;;;;;;;37.05;3.83;;;;;;;5.47;78.16;101924.31;5033034;28;20418;-41
2022/02/01 03:29:25;;;;;;;28.27;3.25;;;;;;;5.49;78.67;101927.69;5033007;28;20489;-41
2022/02/01 03:31:51;;;;;;;35.85;3.47;;;;;;;5.48;78.78;101913.50;5032834;28;20067;-41
2022/02/01 03:34:16;;;;;;;39.10;4.63;;;;;;;5.49;79.51;101912.53;5033050;28;20414;-41
2022/02/01 03:36:42;;;;;;;25.45;3.83;;;;;;;5.53;79.94;101921.16;5032728;28;20021;-40
2022/02/01 03:39:08;;;;;;;40.28;3.90;;;;;;;5.52;80.23;101932.78;5032774;28;20033;-41
2022/02/01 03:41:34;;;;;;;31.95;3.70;;;;;;;5.50;80.84;101932.94;5032776;28;20026;-41
2022/02/01 03:44:05;;;;;;;28.65;3.28;;;;;;;5.53;81.44;101936.31;5031556;28;20038;-41
2022/02/01 03:46:30;;;;;;;40.58;4.22;;;;;;;5.50;81.62;101934.72;5032586;28;20472;-41
2022/02/01 03:48:55;;;;;;;36.88;3.63;;;;;;;5.52;81.90;101934.63;5032691;28;20030;-41
2022/02/01 03:51:21;;;;;;;36.03;5.05;;;;;;;5.53;82.42;101923.84;5032810;28;20030;-41
2022/02/01 03:53:46;;;;;;;32.90;3.80;;;;;;;5.55;82.54;101937.03;5032663;28;20018;-41
2022/02/01 03:56:11;;;;;;;52.30;6.15;;;;;;;5.56;82.89;101925.41;5032548;28;20041;-42
2022/02/01 03:58:37;;;;;;;36.35;4.68;;;;;;;5.56;83.46;101917.41;5032274;28;20041;-41
2022/02/01 04:01:02;;;;;;;44.08;4.97;;;;;;;5.55;83.89;101921.03;5032292;28;20037;-42
2022/02/01 04:03:28;;;;;;;38.13;5.45;;;;;;;5.57;84.44;101908.41;5032508;28;20026;-41
2022/02/01 04:05:53;;;;;;;37.75;4.78;;;;;;;5.56;84.91;101912.91;5032526;28;20032;-42
2022/02/01 04:08:19;;;;;;;30.27;5.60;;;;;;;5.56;84.99;101904.03;5032390;28;20025;-41
2022/02/01 04:10:48;;;;;;;34.90;5.65;;;;;;;5.57;85.19;101897.72;5032441;28;20064;-42
2022/02/01 04:13:13;;;;;;;40.33;6.00;;;;;;;5.57;85.40;101893.22;5032677;28;20038;-42
2022/02/01 04:15:39;;;;;;;46.30;5.32;;;;;;;5.55;85.44;101879.13;5032190;28;20110;-41
2022/02/01 04:18:06;;;;;;;35.08;5.95;;;;;;;5.56;85.91;101882.69;5032204;28;20025;-41
2022/02/01 04:20:31;;;;;;;38.58;6.20;;;;;;;5.58;86.14;101883.38;5032290;28;20037;-41
2022/02/01 04:22:57;;;;;;;55.10;6.38;;;;;;;5.58;86.41;101884.25;5032304;28;20116;-42
2022/02/01 04:25:22;;;;;;;39.15;6.35;;;;;;;5.58;86.43;101886.94;5032039;28;20076;-42
2022/02/01 04:27:47;;;;;;;61.92;7.35;;;;;;;5.55;87.08;101873.81;5032190;28;20379;-41
2022/02/01 04:30:15;;;;;;;37.53;6.57;;;;;;;5.53;86.70;101875.75;5032484;28;20074;-41
2022/02/01 04:32:46;;;;;;;41.43;7.23;;;;;;;5.52;86.93;101867.88;5032051;28;20409;-41
2022/02/01 04:35:18;;;;;;;49.00;8.07;;;;;;;5.52;87.05;101852.69;5036261;28;20359;-41
2022/02/01 04:37:43;;;;;;;55.20;6.30;;;;;;;5.54;87.12;101855.25;5029770;28;20053;-42
2022/02/01 04:40:11;;;;;;;29.52;6.68;;;;;;;5.55;87.41;101846.25;5035869;28;20060;-41
2022/02/01 04:42:38;;;;;;;;;;;;;;;5.57;87.19;101861.19;5037004;28;20033;-42
2022/02/01 04:45:05;;;;;;;35.90;6.23;;;;;;;5.55;87.45;101859.59;5035747;28;20000;-41
2022/02/01 04:47:33;;;;;;;45.22;7.60;;;;;;;5.55;87.79;101852.44;5022671;28;20052;-41
2022/02/01 04:49:59;;;;;;;;;;;;;;;5.56;88.17;101839.97;5036322;28;20033;-42
2022/02/01 04:52:24;;;;;;;54.50;7.05;;;;;;;5.58;88.23;101840.66;5035049;28;19962;-42
2022/02/01 04:54:50;;;;;;;45.70;6.68;;;;;;;5.58;88.61;101829.97;5035741;28;20037;-40
2022/02/01 04:57:15;;;;;;;40.63;5.82;;;;;;;5.59;89.23;101827.19;5035721;28;20613;-41
2022/02/01 04:59:40;;;;;;;35.80;5.95;;;;;;;5.64;89.29;101819.66;5035656;28;20442;-41
2022/02/01 05:02:06;;;;;;;44.65;7.05;;;;;;;5.62;89.91;101810.06;5035780;28;20041;-41
2022/02/01 05:04:31;;;;;;;37.85;7.10;;;;;;;5.62;90.38;101794.03;5035619;28;20045;-41
2022/02/01 05:06:57;;;;;;;39.22;6.93;;;;;;;5.64;90.84;101781.44;5035432;28;20036;-41
2022/02/01 05:09:24;;;;;;;44.90;7.57;;;;;;;5.64;91.52;101786.75;5035521;28;20358;-41
2022/02/01 05:11:50;;;;;;;41.78;7.72;;;;;;;5.66;91.96;101776.78;5044264;28;20045;-41
2022/02/01 05:14:23;;;;;;;42.30;10.35;;;;;;;5.67;92.04;101773.16;5042358;28;20417;-40
2022/02/01 05:19:43;;;;;;;46.80;9.25;;;;;;;5.71;93.34;101763.88;5035750;28;20040;-41
2022/02/01 05:22:12;;;;;;;49.97;11.25;;;;;;;5.72;93.26;101752.25;5035274;28;20033;-41
2022/02/01 05:24:39;;;;;;;45.42;10.05;;;;;;;5.71;93.48;101750.53;5035643;28;20029;-41
2022/02/01 05:27:08;;;;;;;49.78;10.38;;;;;;;5.71;93.86;101774.56;5034148;28;20121;-41
2022/02/01 05:29:34;;;;;;;48.90;10.38;;;;;;;5.72;94.07;101769.13;5034514;28;20136;-40
2022/02/01 05:32:04;;;;;;;42.50;9.93;;;;;;;5.74;94.23;101761.00;5034771;28;20366;-41
2022/02/01 05:34:29;;;;;;;47.75;9.18;;;;;;;5.72;94.11;101737.06;5035479;28;20040;-41
2022/02/01 05:36:55;;;;;;;45.08;8.95;;;;;;;5.73;94.36;101745.94;5034781;28;20037;-41
2022/02/01 05:39:23;;;;;;;37.40;7.85;;;;;;;5.73;94.46;101753.94;5034481;28;20038;-41
2022/02/01 05:41:53;;;;;;;;;;;;;;;5.74;94.61;101750.31;5034455;28;20029;-42
2022/02/01 05:44:18;;;;;;;37.35;7.63;;;;;;;5.72;94.69;101731.72;5032483;28;19920;-42
2022/02/01 05:46:44;;;;;;;35.30;8.55;;;;;;;5.72;95.08;101728.22;5034413;28;20030;-41
2022/02/01 05:49:09;;;;;;;46.55;7.80;;;;;;;5.72;95.03;101715.69;5032724;28;20096;-42
2022/02/01 05:51:35;;;;;;;38.25;8.57;;;;;;;5.69;95.40;101707.13;5021398;28;20052;-41
2022/02/01 05:54:01;;;;;;;37.78;8.32;;;;;;;5.67;95.29;101706.38;5027857;28;20040;-42
2022/02/01 05:56:27;;;;;;;36.13;8.43;;;;;;;5.68;95.72;101708.06;5029225;28;20048;-41
2022/02/01 05:58:52;;;;;;;39.72;7.28;;;;;;;5.72;95.50;101709.53;5030028;28;20037;-43
2022/02/01 06:01:21;;;;;;;37.85;7.00;;;;;;;5.74;95.54;101715.59;5032843;28;20482;-41
2022/02/01 06:03:46;;;;;;;;;;;;;;;5.76;95.59;101715.44;5029157;28;20041;-40
2022/02/01 06:06:12;;;;;;;44.95;8.32;;;;;;;5.77;95.63;101720.66;5031601;28;20008;-42
2022/02/01 06:08:38;;;;;;;37.08;6.72;;;;;;;5.76;95.91;101697.59;5032471;28;20482;-41
2022/02/01 06:11:03;;;;;;;42.03;6.40;;;;;;;5.77;95.88;101691.28;5033025;28;20033;-43
2022/02/01 06:13:28;;;;;;;51.78;6.60;;;;;;;5.78;96.34;101687.63;5033788;28;20029;-42
2022/02/01 06:15:54;;;;;;;56.45;6.88;;;;;;;5.80;96.33;101691.03;5032561;28;20114;-41
2022/02/01 06:18:19;;;;;;;33.13;5.70;;;;;;;5.81;96.51;101692.69;5033151;28;20034;-41
2022/02/01 06:20:45;;;;;;;27.10;5.65;;;;;;;5.83;96.64;101682.75;5025946;28;20113;-40
2022/02/01 06:23:13;;;;;;;31.88;5.47;;;;;;;5.85;96.59;101686.13;5018765;28;20477;-41
2022/02/01 06:25:51;;;;;;;46.67;6.43;;;;;;;5.90;96.77;101675.91;5012345;28;20033;-41
2022/02/01 06:28:24;;;;;;;42.65;6.13;;;;;;;5.90;96.39;101665.22;5029310;28;20060;-40
2022/02/01 06:30:49;;;;;;;40.67;5.00;;;;;;;5.94;96.36;101672.00;5033086;28;20044;-41
2022/02/01 06:33:15;;;;;;;33.67;5.70;;;;;;;5.98;96.41;101661.91;5033671;28;20049;-41
2022/02/01 06:35:41;;;;;;;35.67;5.30;;;;;;;5.99;96.18;101668.09;5033335;28;20120;-40
2022/02/01 06:38:07;;;;;;;32.72;5.07;;;;;;;6.00;96.25;101680.47;5033259;28;20034;-41
2022/02/01 06:40:32;;;;;;;35.63;5.43;;;;;;;5.99;96.56;101676.13;5033060;28;20021;-40
2022/02/01 06:42:57;;;;;;;30.55;7.10;;;;;;;6.00;96.61;101670.63;5032931;28;20825;-40
2022/02/01 06:45:23;;;;;;;40.70;5.43;;;;;;;6.01;96.91;101660.81;5031639;28;20037;-41
2022/02/01 06:47:49;;;;;;;30.50;6.18;;;;;;;6.00;97.37;101654.59;5032759;28;20428;-42
2022/02/01 06:50:19;;;;;;;29.08;4.82;;;;;;;5.97;97.97;101644.19;5032986;28;20074;-42
2022/02/01 06:52:44;;;;;;;19.67;4.68;;;;;;;5.98;98.29;101639.69;5032454;28;20053;-41
2022/02/01 06:55:12;;;;;;;30.63;5.72;;;;;;;5.99;98.74;101630.69;5032545;28;20513;-41
2022/02/01 06:57:37;;;;;;;30.27;5.88;;;;;;;5.99;99.10;101633.38;5030237;28;20041;-41
2022/02/01 07:00:05;;;;;;;26.13;4.60;;;;;;;5.94;99.50;101623.06;5031638;28;20428;-41
2022/02/01 07:02:31;;;;;;;22.63;4.22;;;;;;;5.91;100.00;101632.16;5032087;28;20481;-42
2022/02/01 07:04:56;;;;;;;19.92;4.13;;;;;;;5.91;100.00;101640.19;5032575;28;20029;-42
2022/02/01 07:07:21;;;;;;;15.25;4.15;;;;;;;5.92;100.00;101633.88;5032064;28;20052;-43
2022/02/01 07:09:47;;;;;;;20.75;4.75;;;;;;;5.89;100.00;101628.78;5032047;28;20017;-43
2022/02/01 07:12:12;;;;;;;14.52;3.30;;;;;;;5.90;100.00;101621.63;5030404;28;20123;-42
2022/02/01 07:14:37;;;;;;;27.05;7.93;;;;;;;5.89;100.00;101620.75;5032689;28;20025;-49
2022/02/01 07:17:03;;;;;;;19.05;4.60;;;;;;;5.87;100.00;101630.75;5031321;28;20049;-46
2022/02/01 07:19:28;;;;;;;15.05;4.57;;;;;;;5.86;100.00;101605.00;5032116;28;20025;-47
2022/02/01 07:21:53;;;;;;;13.73;4.78;;;;;;;5.91;100.00;101618.81;5032706;28;20504;-48
2022/02/01 07:24:27;;;;;;;26.75;5.60;;;;;;;5.91;100.00;101613.47;5032485;28;20025;-47
2022/02/01 07:26:57;;;;;;;19.08;5.20;;;;;;;5.92;100.00;101603.63;5032263;28;20026;-48
2022/02/01 07:29:22;;;;;;;25.85;7.15;;;;;;;5.93;100.00;101592.84;5032604;28;20122;-48
2022/02/01 07:31:48;;;;;;;17.67;5.03;;;;;;;5.92;100.00;101584.91;5032338;28;20057;-46
2022/02/01 07:34:14;;;;;;;23.45;6.50;;;;;;;5.93;100.00;101587.50;5032339;28;20028;-47
2022/02/01 07:36:40;;;;;;;22.73;5.13;;;;;;;5.96;100.00;101588.22;5032177;28;20561;-45
2022/02/01 07:39:06;;;;;;;31.70;5.38;;;;;;;5.99;100.00;101577.25;5032231;28;20029;-44
2022/02/01 07:41:32;;;;;;;27.42;5.10;;;;;;;5.98;100.00;101579.09;5032098;28;20021;-44
2022/02/01 07:43:57;;;;;;;24.67;5.35;;;;;;;5.98;100.00;101575.53;5031930;28;20473;-44
2022/02/01 07:46:23;;;;;;;35.15;5.57;;;;;;;5.99;100.00;101575.44;5032298;28;20037;-43
2022/02/01 07:48:48;;;;;;;42.75;5.63;;;;;;;6.00;100.00;101584.28;5032358;28;20438;-43
2022/02/01 07:51:13;;;;;;;32.65;5.43;;;;;;;6.00;100.00;101577.09;5031479;28;20064;-43
2022/02/01 07:53:39;;;;;;;35.80;5.32;;;;;;;6.02;100.00;101574.31;5031751;28;20036;-43
2022/02/01 07:56:05;;;;;;;42.75;6.75;;;;;;;6.00;100.00;101574.44;5031969;28;20088;-42
2022/02/01 07:58:31;;;;;;;32.80;5.40;;;;;;;6.03;100.00;101573.31;5031515;28;20084;-42
2022/02/01 08:00:56;;;;;;;42.50;7.05;;;;;;;6.07;100.00;101567.59;5031938;28;20029;-43
2022/02/01 08:03:21;;;;;;;35.35;6.03;;;;;;;6.08;100.00;101565.75;5031581;28;20342;-43
2022/02/01 08:05:47;;;;;;;43.38;8.10;;;;;;;6.09;100.00;101562.13;5031346;28;20032;-43
2022/02/01 08:08:13;;;;;;;46.83;7.05;;;;;;;6.11;100.00;101554.81;5030629;28;20030;-44
2022/02/01 08:10:45;;;;;;;37.97;7.90;;;;;;;6.11;100.00;101561.00;5031960;28;20056;-47
2022/02/01 08:21:25;;;;;;;40.00;7.30;;;;;;;6.14;100.00;101555.38;5032203;28;20091;-47
2022/02/01 08:23:50;;;;;;;39.22;6.18;;;;;;;6.18;100.00;101553.28;5032053;28;20034;-48
2022/02/01 08:26:16;;;;;;;32.15;5.78;;;;;;;6.18;100.00;101542.56;5031756;28;20034;-46
2022/02/01 08:28:41;;;;;;;35.20;6.25;;;;;;;6.22;100.00;101533.31;5031880;28;20053;-48
2022/02/01 08:31:08;;;;;;;31.88;5.57;;;;;;;6.19;100.00;101536.28;5030319;28;20430;-47
2022/02/01 08:33:33;;;;;;;34.22;5.50;;;;;;;6.17;100.00;101538.22;5032121;28;20358;-47
2022/02/01 08:35:59;;;;;;;40.17;6.07;;;;;;;6.19;100.00;101535.41;5031822;28;20044;-49
2022/02/01 08:38:24;;;;;;;41.90;6.72;;;;;;;6.16;100.00;101520.47;5031592;28;20040;-45
2022/02/01 08:40:49;;;;;;;40.45;6.88;;;;;;;6.15;100.00;101508.94;5031755;28;20033;-45
2022/02/01 08:43:16;;;;;;;31.38;6.20;;;;;;;6.18;100.00;101507.84;5031885;28;20056;-45
2022/02/01 08:45:43;;;;;;;24.95;6.90;;;;;;;6.16;100.00;101493.75;5031747;28;20033;-46
2022/02/01 08:48:08;;;;;;;27.60;6.55;;;;;;;6.18;100.00;101490.97;5031702;28;20436;-44
2022/02/01 08:50:35;;;;;;;43.70;7.85;;;;;;;6.20;100.00;101489.84;5031430;28;20095;-44
2022/02/01 08:53:13;;;;;;;38.27;7.50;;;;;;;6.23;100.00;101505.59;5031463;28;20036;-46
2022/02/01 08:55:50;;;;;;;44.80;7.65;;;;;;;6.22;100.00;101487.03;5032063;28;20061;-47
2022/02/01 08:58:16;;;;;;;39.75;8.50;;;;;;;6.24;100.00;101480.56;5031101;28;20069;-44
2022/02/01 09:00:41;;;;;;;38.40;8.27;;;;;;;6.27;100.00;101474.94;5031210;28;20053;-50
2022/02/01 09:03:07;;;;;;;45.35;8.88;;;;;;;6.28;100.00;101473.94;5013400;28;20030;-45
2022/02/01 09:05:33;;;;;;;52.28;9.00;;;;;;;6.29;100.00;101480.13;5031594;28;20073;-45
2022/02/01 09:08:01;;;;;;;46.35;9.48;;;;;;;6.31;100.00;101468.31;5030967;28;20429;-45
2022/02/01 09:10:28;;;;;;;49.20;9.13;;;;;;;6.32;100.00;101478.06;5030111;28;20021;-45
2022/02/01 09:12:53;;;;;;;39.58;8.88;;;;;;;6.31;100.00;101465.66;5031244;28;20026;-45
2022/02/01 09:15:19;;;;;;;51.70;8.88;;;;;;;6.32;100.00;101459.34;5031543;28;20047;-47
2022/02/01 09:17:44;;;;;;;54.15;9.00;;;;;;;6.33;100.00;101442.31;5031417;28;20517;-45
2022/02/01 09:20:10;;;;;;;51.63;9.50;;;;;;;6.36;100.00;101422.47;5033426;28;20485;-46
2022/02/01 09:22:35;;;;;;;65.57;10.52;;;;;;;6.36;100.00;101419.78;5035355;28;20485;-44
2022/02/01 09:25:01;;;;;;;54.70;8.38;;;;;;;6.36;100.00;101396.56;5035072;28;20029;-48
2022/02/01 09:27:26;;;;;;;57.75;9.75;;;;;;;6.40;100.00;101401.63;5035006;28;20037;-45
2022/02/01 09:29:53;;;;;;;46.78;9.18;;;;;;;6.44;100.00;101405.72;5034987;28;20449;-44
2022/02/01 09:32:18;;;;;;;56.95;9.82;;;;;;;6.44;100.00;101411.91;5033597;28;20119;-43
2022/02/01 09:34:44;;;;;;;51.47;9.25;;;;;;;6.48;100.00;101393.78;5033698;28;20033;-43
2022/02/01 09:37:09;;;;;;;45.55;9.63;;;;;;;6.50;100.00;101378.41;5035240;28;20032;-42
2022/02/01 09:39:34;;;;;;;61.33;10.57;;;;;;;6.54;100.00;101377.16;5034935;28;20026;-42
2022/02/01 09:42:00;;;;;;;57.95;9.73;;;;;;;6.55;100.00;101382.34;5034458;28;20060;-43
2022/02/01 09:44:26;;;;;;;59.55;9.60;;;;;;;6.58;100.00;101381.22;5034554;28;20033;-42
2022/02/01 09:46:52;;;;;;;62.35;10.02;;;;;;;6.63;100.00;101373.59;5034676;28;20108;-42
2022/02/01 09:49:19;;;;;;;67.20;9.25;;;;;;;6.67;100.00;101380.38;5034746;28;20371;-41
2022/02/01 09:51:46;;;;;;;53.90;8.38;;;;;;;6.73;100.00;101385.13;5034741;28;20458;-41
2022/02/01 09:54:11;;;;;;;57.95;9.38;;;;;;;6.70;100.00;101364.03;5034429;28;20030;-41
2022/02/01 09:56:37;;;;;;;49.58;9.20;;;;;;;6.74;100.00;101365.44;5034364;28;20107;-41
2022/02/01 09:59:13;;;;;;;63.88;10.38;;;;;;;6.78;100.00;101364.16;5034519;28;20064;-40
2022/02/01 10:01:44;;;;;;;42.13;8.00;;;;;;;6.82;100.00;101365.56;5034826;28;20469;-41
2022/02/01 10:04:09;;;;;;;59.60;9.60;;;;;;;6.89;100.00;101375.66;5034718;28;20029;-41
2022/02/01 10:06:36;;;;;;;54.47;9.32;;;;;;;6.90;100.00;101372.00;5034604;28;20049;-41
2022/02/01 10:09:06;;;;;;;51.92;9.80;;;;;;;6.88;100.00;101379.34;5034255;28;20088;-43
2022/02/01 10:11:48;;;;;;;59.92;10.70;;;;;;;6.92;100.00;101383.41;5034550;28;20112;-42
2022/02/01 10:14:24;;;;;;;51.40;8.65;;;;;;;6.94;100.00;101376.09;5034512;28;20436;-41
2022/02/01 10:16:51;;;;;;;58.90;8.85;;;;;;;6.94;100.00;101386.78;5032969;28;20037;-41
2022/02/01 10:19:18;;;;;;;47.95;8.55;;;;;;;6.94;100.00;101384.13;5034159;28;20046;-39
2022/02/01 10:21:57;;;;;;;63.45;8.73;;;;;;;6.95;100.00;101383.97;5034157;28;20116;-40
2022/02/01 10:24:29;;;;;;;44.33;7.93;;;;;;;6.96;100.00;101379.47;5033950;28;20445;-40
2022/02/01 10:27:13;;;;;;;45.75;7.43;;;;;;;7.02;100.00;101382.38;5034219;28;20033;-41
2022/02/01 10:29:49;;;;;;;42.28;7.35;;;;;;;7.06;100.00;101380.28;5034076;28;20076;-40
2022/02/01 10:32:20;;;;;;;52.67;8.02;;;;;;;7.04;100.00;101382.25;5033657;28;20029;-40
2022/02/01 10:34:48;;;;;;;52.67;7.10;;;;;;;7.07;100.00;101386.47;5034147;28;20064;-41
2022/02/01 10:37:22;;;;;;;53.22;7.03;;;;;;;7.04;100.00;101372.38;5033907;28;20470;-40
2022/02/01 10:39:56;;;;;;;46.45;6.35;;;;;;;7.08;100.00;101366.75;5033891;28;20025;-41
2022/02/01 10:42:23;;;;;;;53.35;7.28;;;;;;;7.09;100.00;101344.34;5033905;28;20021;-41
2022/02/01 10:44:54;;;;;;;50.63;6.13;;;;;;;7.14;100.00;101377.72;5033571;28;20374;-41
2022/02/01 10:47:34;;;;;;;46.55;7.05;;;;;;;7.22;100.00;101375.16;5033731;28;20030;-40
2022/02/01 10:50:07;;;;;;;49.55;7.53;;;;;;;7.29;99.48;101379.91;5033662;28;20025;-41
2022/02/01 10:52:34;;;;;;;44.67;6.65;;;;;;;7.34;99.16;101382.97;5032544;28;20029;-41
2022/02/01 10:55:00;;;;;;;39.30;6.28;;;;;;;7.38;98.40;101379.03;5033686;28;20524;-41
2022/02/01 10:57:26;;;;;;;48.88;7.68;;;;;;;7.42;98.04;101375.06;5033581;28;20030;-40
2022/02/01 10:59:51;;;;;;;38.22;5.82;;;;;;;7.48;98.13;101372.63;5032033;28;20017;-40
2022/02/01 11:02:17;;;;;;;30.98;5.65;;;;;;;7.55;97.73;101386.25;5033297;28;20384;-41
2022/02/01 11:04:43;;;;;;;45.20;5.97;;;;;;;7.60;97.33;101383.97;5031859;28;20051;-41
2022/02/01 11:07:09;;;;;;;35.75;6.03;;;;;;;7.62;97.05;101382.00;5033329;28;20041;-41
2022/02/01 11:09:34;;;;;;;42.55;6.10;;;;;;;7.67;97.00;101377.03;5033134;28;20367;-40
2022/02/01 11:12:11;;;;;;;41.55;6.63;;;;;;;7.65;96.61;101383.53;5031930;28;20170;-42
2022/02/01 11:14:39;;;;;;;39.80;6.85;;;;;;;7.65;96.47;101372.81;5033082;28;20037;-41
2022/02/01 11:17:07;;;;;;;46.40;7.60;;;;;;;7.63;95.99;101367.59;5033031;28;20115;-41
2022/02/01 11:19:51;;;;;;;42.50;6.03;;;;;;;7.65;96.12;101373.66;5031659;28;20044;-41
2022/02/01 11:22:28;;;;;;;47.95;5.85;;;;;;;7.67;96.03;101365.50;5016271;28;20541;-41
2022/02/01 11:25:01;;;;;;;40.63;6.40;;;;;;;7.66;96.11;101370.00;5033021;28;20104;-41
2022/02/01 11:27:46;;;;;;;34.42;6.15;;;;;;;7.69;96.25;101382.25;5032714;28;20132;-41
2022/02/01 11:30:12;;;;;;;35.00;5.45;;;;;;;7.74;95.77;101379.09;5031246;28;20065;-41
2022/02/01 11:32:40;;;;;;;36.92;5.70;;;;;;;7.83;95.16;101380.91;5032566;28;20485;-41
2022/02/01 11:35:07;;;;;;;33.67;4.95;;;;;;;7.80;94.75;101368.66;5032548;28;20160;-41
2022/02/01 11:37:33;;;;;;;52.20;8.05;;;;;;;7.79;95.41;101344.66;5032607;28;20027;-40
2022/02/01 11:39:59;;;;;;;33.50;4.90;;;;;;;7.77;95.39;101349.34;5032596;28;20056;-42
2022/02/01 11:42:32;;;;;;;38.58;5.13;;;;;;;7.81;95.71;101322.09;5031783;28;20022;-41
2022/02/01 11:45:00;;;;;;;41.47;6.65;;;;;;;7.86;95.76;101318.97;5032544;28;20026;-42
2022/02/01 11:47:38;;;;;;;35.95;5.35;;;;;;;7.93;96.26;101330.75;5032582;28;20429;-42
2022/02/01 11:50:12;;;;;;;;;;;;;;;7.91;95.74;101317.50;5033116;28;20029;-40
2022/02/01 11:52:51;;;;;;;32.58;5.47;;;;;;;7.98;95.33;101317.75;5032574;28;19951;-41
2022/02/01 11:55:17;;;;;;;39.00;6.18;;;;;;;8.01;95.45;101317.44;5032359;28;20076;-43
2022/02/01 11:57:51;;;;;;;39.40;4.47;;;;;;;8.09;94.66;101330.91;5031835;28;20029;-41
2022/02/01 12:00:19;;;;;;;38.00;4.65;;;;;;;8.08;94.48;101323.00;5032390;28;20036;-42
2022/02/01 12:02:49;;;;;;;;;;;;;;;8.06;94.39;101328.53;5031312;28;20116;-41
2022/02/01 12:05:28;;;;;;;38.40;5.32;;;;;;;8.03;94.79;101319.94;5031038;28;19916;-41
2022/02/01 12:08:13;;;;;;;35.03;4.60;;;;;;;8.05;94.28;101321.47;5032188;28;20025;-41
2022/02/01 12:10:47;;;;;;;37.00;5.72;;;;;;;8.09;94.43;101303.25;5014704;28;20108;-41
2022/02/01 12:13:15;;;;;;;33.50;5.13;;;;;;;8.15;94.70;101308.00;5032578;28;20132;-41
2022/02/01 12:15:43;;;;;;;41.45;4.65;;;;;;;8.25;94.44;101287.31;5032069;28;20121;-41
2022/02/01 12:18:15;;;;;;;35.83;4.77;;;;;;;8.28;94.45;101280.78;5031947;28;20075;-41
2022/02/01 12:20:43;;;;;;;37.55;5.03;;;;;;;8.35;94.37;101287.22;5030918;28;20693;-41
2022/02/01 12:23:22;;;;;;;39.33;5.82;;;;;;;8.37;93.97;101285.19;5030743;28;20017;-41
2022/02/01 12:25:48;;;;;;;41.17;5.05;;;;;;;8.48;93.85;101290.34;5031828;28;20397;-41
2022/02/01 12:28:28;;;;;;;46.58;5.47;;;;;;;8.51;92.65;101295.41;5032012;28;20025;-41
2022/02/01 12:31:06;;;;;;;35.80;4.50;;;;;;;8.48;92.55;101310.97;5031753;28;20041;-41
2022/02/01 12:33:32;;;;;;;33.80;5.00;;;;;;;8.50;93.16;101292.88;5032046;28;20042;-41
2022/02/01 12:35:57;;;;;;;40.38;5.07;;;;;;;8.49;93.35;101277.78;5031861;28;20026;-42
2022/02/01 12:38:27;;;;;;;28.52;4.93;;;;;;;8.56;92.46;101290.41;5031934;28;20033;-41
2022/02/01 12:41:11;;;;;;;37.63;4.88;;;;;;;8.53;92.76;101285.38;5031929;28;20057;-41
2022/02/01 12:43:55;;;;;;;26.50;3.90;;;;;;;8.52;92.76;101275.63;5031857;28;20365;-41
2022/02/01 12:46:39;;;;;;;35.83;4.78;;;;;;;8.52;92.85;101264.03;5032010;28;20037;-41
2022/02/01 12:49:05;;;;;;;34.75;4.63;;;;;;;8.55;92.60;101258.38;5031741;28;20037;-41